createdAt,value
2018-07-07T00:01:45.629Z,102102.72
2018-07-07T00:04:13.502Z,102096.15
2018-07-07T00:06:41.420Z,102101.42
2018-07-07T00:09:09.356Z,102097.47
2018-07-07T00:11:37.006Z,102105.38
2018-07-07T00:14:04.692Z,102101.02
2018-07-07T00:16:32.320Z,102108.92
2018-07-07T00:19:00.215Z,102107.16
2018-07-07T00:21:28.129Z,102105.02
2018-07-07T00:23:55.790Z,102101.47
2018-07-07T00:26:23.433Z,102105.84
2018-07-07T00:28:51.102Z,102102.78
2018-07-07T00:31:18.764Z,102113.34
2018-07-07T00:33:46.725Z,102107.65
2018-07-07T00:36:14.738Z,102110.29
2018-07-07T00:38:42.734Z,102112.92
2018-07-07T00:41:10.568Z,102106.77
2018-07-07T00:43:38.293Z,102105.45
2018-07-07T00:46:06.258Z,102111.61
2018-07-07T00:48:33.903Z,102108.55
2018-07-07T00:51:01.534Z,102106.36
2018-07-07T00:53:30.154Z,102108.11
2018-07-07T00:55:58.151Z,102103.28
2018-07-07T00:58:26.054Z,102106.38
2018-07-07T01:00:53.748Z,102104.64
2018-07-07T01:03:22.098Z,102104.23
2018-07-07T01:05:50.157Z,102109.89
2018-07-07T01:08:18.355Z,102108.60
2018-07-07T01:10:46.361Z,102112.13
2018-07-07T01:13:15.043Z,102108.19
2018-07-07T01:15:42.975Z,102108.19
2018-07-07T01:18:10.633Z,102115.70
2018-07-07T01:20:38.851Z,102113.48
2018-07-07T01:23:06.512Z,102111.30
2018-07-07T01:25:34.478Z,102106.91
2018-07-07T01:28:02.399Z,102105.56
2018-07-07T01:30:30.569Z,102110.41
2018-07-07T01:32:58.597Z,102108.64
2018-07-07T01:35:26.463Z,102111.28
2018-07-07T01:37:54.657Z,102112.16
2018-07-07T01:40:22.327Z,102109.13
2018-07-07T01:42:49.982Z,102109.13
2018-07-07T01:45:17.969Z,102106.02
2018-07-07T01:47:45.653Z,102111.75
2018-07-07T01:50:13.901Z,102110.45
2018-07-07T01:52:41.837Z,102112.20
2018-07-07T01:55:10.244Z,102108.72
2018-07-07T01:57:37.942Z,102106.08
2018-07-07T02:00:05.578Z,102103.45
2018-07-07T02:02:33.434Z,102109.59
2018-07-07T02:05:01.326Z,102107.83
2018-07-07T02:07:28.982Z,102109.59
2018-07-07T02:09:56.945Z,102110.91
2018-07-07T02:12:24.664Z,102113.55
2018-07-07T02:14:52.329Z,102111.37
2018-07-07T02:17:19.954Z,102108.27
2018-07-07T02:19:48.387Z,102111.37
2018-07-07T02:22:22.849Z,102106.53
2018-07-07T02:24:51.567Z,102105.63
2018-07-07T02:27:19.732Z,102099.94
2018-07-07T02:29:48.051Z,102103.88
2018-07-07T02:32:15.751Z,102104.77
2018-07-07T02:34:43.579Z,102103.90
2018-07-07T02:37:11.405Z,102106.10
2018-07-07T02:39:39.152Z,102110.03
2018-07-07T02:42:07.035Z,102101.23
2018-07-07T02:44:34.713Z,102102.58
2018-07-07T02:47:02.910Z,102106.12
2018-07-07T02:49:30.825Z,102104.80
2018-07-07T02:51:58.463Z,102111.81
2018-07-07T02:54:26.132Z,102115.77
2018-07-07T02:56:53.773Z,102111.81
2018-07-07T02:59:21.436Z,102117.98
2018-07-07T03:01:49.159Z,102120.22
2018-07-07T03:04:16.887Z,102121.97
2018-07-07T03:06:44.549Z,102127.66
2018-07-07T03:09:12.208Z,102126.34
2018-07-07T03:11:40.148Z,102128.54
2018-07-07T03:14:08.426Z,102123.27
2018-07-07T03:16:36.384Z,102128.97
2018-07-07T03:19:04.498Z,102127.22
2018-07-07T03:21:32.650Z,102125.91
2018-07-07T03:24:00.640Z,102127.22
2018-07-07T03:26:28.731Z,102123.27
2018-07-07T03:28:56.701Z,102129.44
2018-07-07T03:31:24.341Z,102130.73
2018-07-07T03:33:52.324Z,102135.11
2018-07-07T03:36:20.220Z,102139.92
2018-07-07T03:38:48.117Z,102139.92
2018-07-07T03:41:15.850Z,102143.02
2018-07-07T03:43:43.817Z,102140.37
2018-07-07T03:46:11.441Z,102138.14
2018-07-07T03:48:39.496Z,102134.63
2018-07-07T03:51:07.148Z,102135.04
2018-07-07T03:53:34.968Z,102138.56
2018-07-07T03:56:03.252Z,102138.97
2018-07-07T03:58:30.889Z,102140.30
2018-07-07T04:00:58.895Z,102136.78
2018-07-07T04:03:27.434Z,102139.84
2018-07-07T04:05:55.061Z,102147.67
2018-07-07T04:08:23.300Z,102146.36
2018-07-07T04:10:51.111Z,102148.99
2018-07-07T04:13:18.744Z,102148.56
2018-07-07T04:15:47.447Z,102153.84
2018-07-07T04:18:19.705Z,102152.95
2018-07-07T04:20:47.717Z,102152.95
2018-07-07T04:23:15.621Z,102152.95
2018-07-07T04:25:43.687Z,102152.08
2018-07-07T04:28:11.563Z,102156.47
2018-07-07T04:30:39.433Z,102149.46
2018-07-07T04:33:07.112Z,102154.27
2018-07-07T04:35:34.758Z,102146.36
2018-07-07T04:38:02.970Z,102147.24
2018-07-07T04:40:30.641Z,102149.88
2018-07-07T04:42:58.267Z,102147.66
2018-07-07T04:45:25.902Z,102149.44
2018-07-07T04:47:53.921Z,102147.66
2018-07-07T04:50:22.198Z,102140.62
2018-07-07T04:52:50.525Z,102144.14
2018-07-07T04:55:18.969Z,102134.91
2018-07-07T04:57:46.918Z,102144.56
2018-07-07T05:00:14.629Z,102144.09
2018-07-07T05:02:42.912Z,102136.64
2018-07-07T05:05:10.595Z,102145.47
2018-07-07T05:07:38.576Z,102143.67
2018-07-07T05:10:06.279Z,102152.45
2018-07-07T05:12:33.909Z,102146.27
2018-07-07T05:15:02.041Z,102155.04
2018-07-07T05:17:29.689Z,102155.48
2018-07-07T05:19:57.330Z,102153.28
2018-07-07T05:22:24.957Z,102151.55
2018-07-07T05:24:52.571Z,102155.92
2018-07-07T05:27:21.257Z,102152.83
2018-07-07T05:29:48.898Z,102153.66
2018-07-07T05:32:16.914Z,102150.58
2018-07-07T05:34:45.023Z,102153.61
2018-07-07T05:37:12.688Z,102148.70
2018-07-07T05:39:40.917Z,102147.83
2018-07-07T05:42:08.620Z,102150.07
2018-07-07T05:44:36.541Z,102159.73
2018-07-07T05:47:04.882Z,102147.87
2018-07-07T05:49:32.753Z,102149.58
2018-07-07T05:52:00.402Z,102156.56
2018-07-07T05:54:28.656Z,102157.03
2018-07-07T05:56:56.430Z,102153.91
2018-07-07T05:59:24.283Z,102155.16
2018-07-07T06:01:52.226Z,102160.35
2018-07-07T06:04:20.164Z,102153.27
2018-07-07T06:06:47.828Z,102162.04
2018-07-07T06:09:15.869Z,102156.37
2018-07-07T06:11:43.768Z,102163.45
2018-07-07T06:14:11.673Z,102173.20
2018-07-07T06:16:39.366Z,102167.09
2018-07-07T06:19:07.445Z,102176.31
2018-07-07T06:21:35.087Z,102174.52
2018-07-07T06:24:03.090Z,102177.50
2018-07-07T06:26:30.792Z,102179.66
2018-07-07T06:28:58.494Z,102186.63
2018-07-07T06:31:26.775Z,102182.62
2018-07-07T06:33:54.675Z,102183.50
2018-07-07T06:36:22.568Z,102188.36
2018-07-07T06:38:50.539Z,102191.00
2018-07-07T06:41:18.177Z,102188.83
2018-07-07T06:43:45.912Z,102191.48
2018-07-07T06:46:13.936Z,102199.45
2018-07-07T06:48:41.593Z,102200.39
2018-07-07T06:51:09.488Z,102194.20
2018-07-07T06:53:37.174Z,102196.82
2018-07-07T06:56:05.464Z,102196.82
2018-07-07T06:58:33.374Z,102206.06
2018-07-07T07:01:01.249Z,102200.80
2018-07-07T07:03:29.167Z,102195.03
2018-07-07T07:05:57.221Z,102196.27
2018-07-07T07:08:25.095Z,102198.78
2018-07-07T07:10:52.841Z,102197.89
2018-07-07T07:13:21.296Z,102194.47
2018-07-07T07:15:48.928Z,102191.42
2018-07-07T07:18:16.778Z,102193.63
2018-07-07T07:20:44.536Z,102207.19
2018-07-07T07:23:12.169Z,102208.14
2018-07-07T07:25:40.150Z,102212.56
2018-07-07T07:28:08.110Z,102208.09
2018-07-07T07:30:35.716Z,102214.58
2018-07-07T07:33:03.700Z,102210.03
2018-07-07T07:35:31.326Z,102208.24
2018-07-07T07:37:58.995Z,102213.16
2018-07-07T07:40:26.932Z,102220.70
2018-07-07T07:42:55.247Z,102219.46
2018-07-07T07:45:23.136Z,102222.56
2018-07-07T07:47:50.792Z,102223.33
2018-07-07T07:50:18.458Z,102219.36
2018-07-07T07:52:46.187Z,102223.37
2018-07-07T07:55:13.829Z,102221.16
2018-07-07T07:57:41.447Z,102209.61
2018-07-07T08:00:09.690Z,102218.37
2018-07-07T08:02:38.004Z,102223.23
2018-07-07T08:05:06.025Z,102216.12
2018-07-07T08:07:34.078Z,102219.56
2018-07-07T08:10:01.718Z,102215.19
2018-07-07T08:12:29.832Z,102221.30
2018-07-07T08:14:57.476Z,102220.03
2018-07-07T08:17:25.102Z,102227.95
2018-07-07T08:19:53.084Z,102222.67
2018-07-07T08:22:20.985Z,102225.70
2018-07-07T08:24:48.909Z,102222.18
2018-07-07T08:27:16.568Z,102222.18
2018-07-07T08:29:44.737Z,102229.95
2018-07-07T08:32:12.377Z,102230.79
2018-07-07T08:34:40.031Z,102230.25
2018-07-07T08:37:07.918Z,102227.99
2018-07-07T08:39:35.549Z,102238.54
2018-07-07T08:42:03.202Z,102229.36
2018-07-07T08:44:31.222Z,102242.98
2018-07-07T08:46:58.850Z,102238.61
2018-07-07T08:49:27.045Z,102238.17
2018-07-07T08:51:54.678Z,102241.05
2018-07-07T08:54:22.896Z,102245.45
2018-07-07T08:56:50.855Z,102239.34
2018-07-07T08:59:18.486Z,102239.39
2018-07-07T09:01:46.381Z,102245.70
2018-07-07T09:04:14.109Z,102246.08
2018-07-07T09:06:41.728Z,102241.95
2018-07-07T09:09:09.836Z,102234.08
2018-07-07T09:11:37.707Z,102248.20
2018-07-07T09:14:05.804Z,102244.13
2018-07-07T09:16:33.447Z,102243.69
2018-07-07T09:19:01.094Z,102241.80
2018-07-07T09:21:29.150Z,102247.50
2018-07-07T09:23:57.285Z,102248.73
2018-07-07T09:26:24.919Z,102246.13
2018-07-07T09:28:52.946Z,102243.28
2018-07-07T09:31:20.806Z,102241.59
2018-07-07T09:33:48.445Z,102239.73
2018-07-07T09:36:16.389Z,102243.15
2018-07-07T09:38:44.567Z,102244.03
2018-07-07T09:41:12.860Z,102242.70
2018-07-07T09:43:40.994Z,102242.17
2018-07-07T09:46:08.705Z,102247.69
2018-07-07T09:48:36.440Z,102243.36
2018-07-07T09:51:04.355Z,102249.22
2018-07-07T09:53:31.958Z,102244.88
2018-07-07T09:55:59.654Z,102240.85
2018-07-07T09:58:27.321Z,102251.76
2018-07-07T10:00:55.292Z,102251.38
2018-07-07T10:03:22.951Z,102246.09
2018-07-07T10:05:50.566Z,102248.28
2018-07-07T10:08:18.556Z,102247.03
2018-07-07T10:10:46.534Z,102248.77
2018-07-07T10:13:14.480Z,102254.06
2018-07-07T10:15:42.250Z,102254.45
2018-07-07T10:18:10.558Z,102263.16
2018-07-07T10:20:38.203Z,102261.39
2018-07-07T10:23:06.285Z,102257.41
2018-07-07T10:25:34.713Z,102259.98
2018-07-07T10:28:02.342Z,102254.70
2018-07-07T10:30:30.226Z,102253.86
2018-07-07T10:32:58.382Z,102262.97
2018-07-07T10:35:26.078Z,102264.29
2018-07-07T10:37:53.740Z,102254.08
2018-07-07T10:40:21.665Z,102261.48
2018-07-07T10:42:49.314Z,102261.98
2018-07-07T10:45:17.029Z,102254.02
2018-07-07T10:47:45.213Z,102254.02
2018-07-07T10:50:12.872Z,102258.84
2018-07-07T10:52:40.806Z,102258.32
2018-07-07T10:55:08.772Z,102261.38
2018-07-07T10:57:36.728Z,102253.78
2018-07-07T11:00:05.250Z,102260.83
2018-07-07T11:02:33.187Z,102253.89
2018-07-07T11:05:01.489Z,102257.36
2018-07-07T11:07:29.437Z,102257.27
2018-07-07T11:09:57.407Z,102259.53
2018-07-07T11:12:25.341Z,102268.34
2018-07-07T11:14:53.228Z,102264.41
2018-07-07T11:17:20.916Z,102266.55
2018-07-07T11:19:48.927Z,102263.42
2018-07-07T11:22:16.578Z,102270.38
2018-07-07T11:24:44.271Z,102266.33
2018-07-07T11:27:12.581Z,102268.95
2018-07-07T11:29:40.206Z,102267.07
2018-07-07T11:32:07.866Z,102271.86
2018-07-07T11:34:35.860Z,102277.95
2018-07-07T11:37:03.510Z,102267.39
2018-07-07T11:39:31.821Z,102290.23
2018-07-07T11:41:59.512Z,102273.06
2018-07-07T11:44:27.402Z,102285.70
2018-07-07T11:46:55.188Z,102277.33
2018-07-07T11:49:23.704Z,102282.21
2018-07-07T11:51:51.326Z,102276.86
2018-07-07T11:54:19.249Z,102274.63
2018-07-07T11:56:47.464Z,102272.41
2018-07-07T11:59:15.098Z,102268.84
2018-07-07T12:01:42.968Z,102268.78
2018-07-07T12:04:10.870Z,102283.75
2018-07-07T12:06:38.561Z,102274.13
2018-07-07T12:09:06.841Z,102265.81
2018-07-07T12:11:34.457Z,102274.63
2018-07-07T12:14:02.124Z,102268.88
2018-07-07T12:16:30.015Z,102262.67
2018-07-07T12:18:57.922Z,102267.93
2018-07-07T12:21:25.577Z,102261.67
2018-07-07T12:23:53.228Z,102255.88
2018-07-07T12:26:20.850Z,102257.61
2018-07-07T12:28:48.788Z,102264.16
2018-07-07T12:31:16.495Z,102262.78
2018-07-07T12:33:44.449Z,102264.05
2018-07-07T12:36:12.190Z,102265.77
2018-07-07T12:38:39.807Z,102270.75
2018-07-07T12:41:07.465Z,102263.69
2018-07-07T12:43:35.103Z,102263.19
2018-07-07T12:46:02.740Z,102268.01
2018-07-07T12:48:30.609Z,102263.19
2018-07-07T12:50:58.224Z,102266.75
2018-07-07T12:53:25.880Z,102267.98
2018-07-07T12:55:53.497Z,102261.39
2018-07-07T12:58:21.407Z,102262.19
2018-07-07T13:00:49.416Z,102268.36
2018-07-07T13:03:17.257Z,102261.23
2018-07-07T13:05:45.182Z,102267.83
2018-07-07T13:08:12.855Z,102263.31
2018-07-07T13:10:40.754Z,102267.66
2018-07-07T13:13:08.373Z,102267.16
2018-07-07T13:15:36.132Z,102273.25
2018-07-07T13:18:04.102Z,102274.95
2018-07-07T13:20:31.789Z,102274.09
2018-07-07T13:22:59.466Z,102268.80
2018-07-07T13:25:27.128Z,102269.52
2018-07-07T13:27:54.727Z,102265.20
2018-07-07T13:30:23.001Z,102265.48
2018-07-07T13:32:50.993Z,102270.84
2018-07-07T13:35:18.859Z,102265.96
2018-07-07T13:37:46.862Z,102281.37
2018-07-07T13:40:14.933Z,102268.10
2018-07-07T13:42:42.538Z,102267.59
2018-07-07T13:45:10.133Z,102281.66
2018-07-07T13:47:38.236Z,102272.80
2018-07-07T13:50:06.662Z,102273.61
2018-07-07T13:52:34.301Z,102278.84
2018-07-07T13:55:02.301Z,102264.78
2018-07-07T13:57:30.273Z,102279.31
2018-07-07T13:59:58.144Z,102276.12
2018-07-07T14:02:26.129Z,102278.73
2018-07-07T14:04:53.977Z,102270.77
2018-07-07T14:07:21.956Z,102276.84
2018-07-07T14:09:49.810Z,102278.95
2018-07-07T14:12:17.413Z,102282.95
2018-07-07T14:14:45.279Z,102279.33
2018-07-07T14:17:12.970Z,102278.91
2018-07-07T14:19:41.109Z,102288.59
2018-07-07T14:22:09.037Z,102282.48
2018-07-07T14:24:36.665Z,102279.62
2018-07-07T14:27:04.361Z,102276.27
2018-07-07T14:29:31.985Z,102275.29
2018-07-07T14:31:59.631Z,102270.36
2018-07-07T14:34:27.675Z,102276.53
2018-07-07T14:36:55.440Z,102271.63
2018-07-07T14:39:25.124Z,102275.61
2018-07-07T14:42:01.596Z,102278.87
2018-07-07T14:44:29.562Z,102281.86
2018-07-07T14:46:57.196Z,102280.91
2018-07-07T14:49:25.141Z,102276.77
2018-07-07T14:51:53.364Z,102284.77
2018-07-07T14:54:21.237Z,102283.33
2018-07-07T14:56:49.272Z,102278.75
2018-07-07T14:59:16.882Z,102279.20
2018-07-07T15:01:44.742Z,102280.02
2018-07-07T15:04:12.776Z,102291.53
2018-07-07T15:06:40.375Z,102288.16
2018-07-07T15:09:08.205Z,102281.34
2018-07-07T15:11:35.890Z,102274.84
2018-07-07T15:14:03.749Z,102287.40
2018-07-07T15:16:31.661Z,102278.94
2018-07-07T15:18:59.309Z,102278.23
2018-07-07T15:21:27.322Z,102276.58
2018-07-07T15:23:55.152Z,102279.23
2018-07-07T15:26:23.021Z,102277.42
2018-07-07T15:28:51.263Z,102279.95
2018-07-07T15:31:19.245Z,102284.16
2018-07-07T15:33:47.166Z,102282.46
2018-07-07T15:36:15.217Z,102288.31
2018-07-07T15:38:42.814Z,102286.81
2018-07-07T15:41:10.706Z,102272.86
2018-07-07T15:43:38.733Z,102271.69
2018-07-07T15:46:06.353Z,102282.80
2018-07-07T15:48:34.209Z,102282.84
2018-07-07T15:51:01.889Z,102286.70
2018-07-07T15:53:29.724Z,102286.23
2018-07-07T15:55:57.453Z,102282.22
2018-07-07T15:58:25.038Z,102272.05
2018-07-07T16:00:53.017Z,102276.77
2018-07-07T16:03:21.353Z,102270.98
2018-07-07T16:05:49.062Z,102276.83
2018-07-07T16:08:17.011Z,102272.29
2018-07-07T16:10:44.785Z,102277.73
2018-07-07T16:13:12.668Z,102271.19
2018-07-07T16:15:40.598Z,102274.75
2018-07-07T16:18:08.516Z,102272.06
2018-07-07T16:20:36.242Z,102271.75
2018-07-07T16:23:04.197Z,102272.06
2018-07-07T16:25:31.958Z,102271.87
2018-07-07T16:27:59.548Z,102268.98
2018-07-07T16:30:27.494Z,102271.67
2018-07-07T16:32:55.387Z,102271.63
2018-07-07T16:35:22.977Z,102275.89
2018-07-07T16:37:51.011Z,102265.72
2018-07-07T16:40:18.855Z,102265.88
2018-07-07T16:42:47.174Z,102264.95
2018-07-07T16:45:15.049Z,102263.19
2018-07-07T16:47:42.993Z,102259.56
2018-07-07T16:50:11.605Z,102253.63
2018-07-07T16:52:39.856Z,102252.92
2018-07-07T16:55:07.724Z,102252.14
2018-07-07T16:57:35.737Z,102250.86
2018-07-07T17:00:03.327Z,102255.11
2018-07-07T17:02:30.934Z,102249.69
2018-07-07T17:04:58.682Z,102254.67
2018-07-07T17:07:26.322Z,102252.59
2018-07-07T17:09:54.354Z,102251.64
2018-07-07T17:12:22.836Z,102254.27
2018-07-07T17:14:50.747Z,102255.38
2018-07-07T17:17:18.353Z,102258.75
2018-07-07T17:19:47.011Z,102253.15
2018-07-07T17:22:14.705Z,102259.14
2018-07-07T17:24:43.184Z,102251.17
2018-07-07T17:27:11.419Z,102250.59
2018-07-07T17:29:39.287Z,102248.43
2018-07-07T17:32:08.354Z,102249.31
2018-07-07T17:34:36.202Z,102251.20
2018-07-07T17:37:04.574Z,102247.94
2018-07-07T17:39:32.480Z,102244.38
2018-07-07T17:42:00.156Z,102245.47
2018-07-07T17:44:27.782Z,102255.80
2018-07-07T17:46:55.996Z,102249.29
2018-07-07T17:49:24.181Z,102248.80
2018-07-07T17:51:51.904Z,102246.06
2018-07-07T17:54:20.006Z,102249.00
2018-07-07T17:56:48.510Z,102248.95
2018-07-07T17:59:16.173Z,102253.43
2018-07-07T18:01:43.768Z,102252.12
2018-07-07T18:04:11.385Z,102252.48
2018-07-07T18:06:39.148Z,102258.67
2018-07-07T18:09:07.058Z,102263.58
2018-07-07T18:11:34.956Z,102258.33
2018-07-07T18:14:02.997Z,102261.79
2018-07-07T18:16:30.676Z,102257.25
2018-07-07T18:18:58.280Z,102255.27
2018-07-07T18:21:26.138Z,102249.44
2018-07-07T18:23:53.982Z,102254.61
2018-07-07T18:26:23.067Z,102246.28
2018-07-07T18:28:51.796Z,102249.78
2018-07-07T18:31:19.680Z,102256.20
2018-07-07T18:33:48.023Z,102252.45
2018-07-07T18:36:15.660Z,102252.09
2018-07-07T18:38:43.306Z,102250.36
2018-07-07T18:41:11.370Z,102248.63
2018-07-07T18:43:38.980Z,102249.84
2018-07-07T18:46:07.316Z,102244.88
2018-07-07T18:48:35.560Z,102250.42
2018-07-07T18:51:03.167Z,102245.38
2018-07-07T18:53:30.778Z,102242.89
2018-07-07T18:55:58.701Z,102243.96
2018-07-07T18:58:26.578Z,102239.33
2018-07-07T19:00:54.248Z,102250.08
2018-07-07T19:03:21.872Z,102253.31
2018-07-07T19:05:50.085Z,102252.06
2018-07-07T19:08:18.914Z,102250.44
2018-07-07T19:10:47.014Z,102247.38
2018-07-07T19:13:14.665Z,102245.61
2018-07-07T19:15:46.624Z,102249.06
2018-07-07T19:18:15.101Z,102253.78
2018-07-07T19:20:48.693Z,102247.88
2018-07-07T19:23:21.821Z,102244.52
2018-07-07T19:25:55.125Z,102246.08
2018-07-07T19:28:22.959Z,102243.59
2018-07-07T19:30:50.567Z,102237.54
2018-07-07T19:33:25.002Z,102243.41
2018-07-07T19:35:58.153Z,102237.45
2018-07-07T19:38:26.385Z,102239.31
2018-07-07T19:40:54.109Z,102247.84
2018-07-07T19:43:21.711Z,102247.94
2018-07-07T19:45:49.360Z,102248.09
2018-07-07T19:48:16.954Z,102247.73
2018-07-07T19:50:45.297Z,102251.32
2018-07-07T19:53:12.932Z,102250.55
2018-07-07T19:55:40.819Z,102251.55
2018-07-07T19:58:09.004Z,102254.31
2018-07-07T20:00:36.609Z,102252.17
2018-07-07T20:03:04.254Z,102255.34
2018-07-07T20:05:32.527Z,102260.69
2018-07-07T20:08:00.141Z,102258.13
2018-07-07T20:10:27.785Z,102263.47
2018-07-07T20:12:55.860Z,102263.52
2018-07-07T20:15:35.341Z,102265.37
2018-07-07T20:18:06.848Z,102258.38
2018-07-07T20:20:39.940Z,102260.16
2018-07-07T20:25:36.802Z,102248.02
2018-07-07T20:28:10.423Z,102256.88
2018-07-07T20:30:38.028Z,102251.21
2018-07-07T20:33:06.298Z,102253.00
2018-07-07T20:35:33.893Z,102242.95
2018-07-07T20:38:01.876Z,102249.16
2018-07-07T20:40:29.646Z,102241.27
2018-07-07T20:42:57.391Z,102238.65
2018-07-07T20:45:25.097Z,102238.22
2018-07-07T20:47:53.203Z,102239.16
2018-07-07T20:50:20.884Z,102236.54
2018-07-07T20:52:48.746Z,102232.19
2018-07-07T20:55:16.502Z,102232.71
2018-07-07T20:57:44.532Z,102238.41
2018-07-07T21:00:12.167Z,102239.78
2018-07-07T21:02:40.462Z,102241.16
2018-07-07T21:05:08.409Z,102238.09
2018-07-07T21:07:36.346Z,102243.84
2018-07-07T21:10:04.335Z,102248.24
2018-07-07T21:12:32.087Z,102253.11
2018-07-07T21:15:00.135Z,102247.83
2018-07-07T21:17:28.803Z,102248.77
2018-07-07T21:19:57.016Z,102251.84
2018-07-07T21:22:24.681Z,102254.98
2018-07-07T21:24:52.309Z,102250.59
2018-07-07T21:27:20.038Z,102248.83
2018-07-07T21:29:47.921Z,102251.97
2018-07-07T21:32:15.679Z,102248.91
2018-07-07T21:34:43.613Z,102241.02
2018-07-07T21:37:11.473Z,102246.73
2018-07-07T21:39:39.390Z,102245.44
2018-07-07T21:42:07.011Z,102243.67
2018-07-07T21:44:34.639Z,102242.35
2018-07-07T21:47:02.290Z,102240.62
2018-07-07T21:49:29.933Z,102238.44
2018-07-07T21:51:57.537Z,102237.61
2018-07-07T21:54:25.794Z,102238.52
2018-07-07T21:56:54.208Z,102246.44
2018-07-07T21:59:22.281Z,102242.50
2018-07-07T22:01:58.357Z,102246.48
2018-07-07T22:04:32.350Z,102246.94
2018-07-07T22:07:06.209Z,102245.68
2018-07-07T22:09:34.666Z,102256.24
2018-07-07T22:12:02.338Z,102250.53
2018-07-07T22:14:30.605Z,102252.30
2018-07-07T22:16:58.541Z,102243.08
2018-07-07T22:19:26.809Z,102241.34
2018-07-07T22:22:03.105Z,102243.13
2018-07-07T22:24:30.709Z,102244.03
2018-07-07T22:27:01.700Z,102246.25
2018-07-07T22:29:29.362Z,102243.17
2018-07-07T22:31:58.314Z,102248.45
2018-07-07T22:34:31.116Z,102239.70
2018-07-07T22:36:58.834Z,102235.73
2018-07-07T22:39:26.466Z,102237.08
2018-07-07T22:41:57.272Z,102234.00
2018-07-07T22:44:25.175Z,102234.93
2018-07-07T22:46:53.491Z,102232.29
2018-07-07T22:49:21.155Z,102235.80
2018-07-07T22:51:48.839Z,102229.20
2018-07-07T22:54:16.978Z,102229.20
2018-07-07T22:56:44.882Z,102226.62
2018-07-07T22:59:13.105Z,102226.64
2018-07-07T23:01:41.265Z,102228.38
2018-07-07T23:04:09.376Z,102228.86
2018-07-07T23:06:40.181Z,102227.08
2018-07-07T23:09:10.137Z,102225.78
2018-07-07T23:11:38.174Z,102231.06
2018-07-07T23:14:06.121Z,102228.02
2018-07-07T23:16:33.766Z,102235.09
2018-07-07T23:19:02.699Z,102229.36
2018-07-07T23:21:30.740Z,102235.55
2018-07-07T23:23:58.396Z,102229.86
2018-07-07T23:26:26.677Z,102225.48
2018-07-07T23:28:54.315Z,102234.72
2018-07-07T23:31:22.228Z,102233.38
2018-07-07T23:33:50.813Z,102238.67
2018-07-07T23:36:18.769Z,102237.78
2018-07-07T23:38:46.950Z,102238.66
2018-07-07T23:41:14.709Z,102240.00
2018-07-07T23:43:42.332Z,102234.31
2018-07-07T23:46:10.613Z,102235.65
2018-07-07T23:48:38.806Z,102235.22
2018-07-07T23:51:07.187Z,102236.08
2018-07-07T23:53:34.841Z,102233.03
2018-07-07T23:56:02.817Z,102234.35
2018-07-07T23:58:30.661Z,102230.39
